createdAt,value
2022-12-01T00:02:18.611Z,83.83
2022-12-01T00:04:51.900Z,83.78
2022-12-01T00:07:24.006Z,83.50
2022-12-01T00:10:10.038Z,83.31
2022-12-01T00:12:43.623Z,83.50
2022-12-01T00:15:15.889Z,83.44
2022-12-01T00:17:48.966Z,83.64
2022-12-01T00:20:21.795Z,83.86
2022-12-01T00:22:53.909Z,83.87
2022-12-01T00:25:24.385Z,83.75
2022-12-01T00:27:57.419Z,83.97
2022-12-01T00:30:29.467Z,84.03
2022-12-01T00:33:01.428Z,84.03
2022-12-01T00:35:33.434Z,84.15
2022-12-01T00:38:03.829Z,84.20
2022-12-01T00:40:36.241Z,84.34
2022-12-01T00:43:08.273Z,84.56
2022-12-01T00:45:40.518Z,84.64
2022-12-01T00:48:12.752Z,84.86
2022-12-01T00:50:45.098Z,85.06
2022-12-01T00:53:17.153Z,85.18
2022-12-01T00:55:49.202Z,85.12
2022-12-01T00:58:21.393Z,85.18
2022-12-01T01:00:58.027Z,85.05
2022-12-01T01:03:30.941Z,85.12
2022-12-01T01:06:09.048Z,85.12
2022-12-01T01:08:41.487Z,85.22
2022-12-01T01:11:13.491Z,85.35
2022-12-01T01:13:45.573Z,85.30
2022-12-01T01:16:17.865Z,85.23
2022-12-01T01:18:50.491Z,85.30
2022-12-01T01:21:23.420Z,85.24
2022-12-01T01:23:56.390Z,85.07
2022-12-01T01:26:30.365Z,84.91
2022-12-01T01:29:04.255Z,84.96
2022-12-01T01:31:39.275Z,85.17
2022-12-01T01:34:12.338Z,85.08
2022-12-01T01:36:44.491Z,85.21
2022-12-01T01:39:16.634Z,85.10
2022-12-01T01:41:47.037Z,85.14
2022-12-01T01:44:53.370Z,85.32
2022-12-01T01:47:29.348Z,85.31
2022-12-01T01:50:08.493Z,85.54
2022-12-01T01:52:44.292Z,85.61
2022-12-01T01:55:18.254Z,85.77
2022-12-01T01:57:50.408Z,85.58
2022-12-01T02:00:21.856Z,85.40
2022-12-01T02:02:54.571Z,85.67
2022-12-01T02:05:30.565Z,85.56
2022-12-01T02:08:04.878Z,85.20
2022-12-01T02:10:51.338Z,85.20
2022-12-01T02:13:29.120Z,85.12
2022-12-01T02:16:11.088Z,85.27
2022-12-01T02:18:53.428Z,85.26
2022-12-01T02:21:51.589Z,85.23
2022-12-01T02:24:48.507Z,85.53
2022-12-01T02:27:33.398Z,85.44
2022-12-01T02:30:15.528Z,85.26
2022-12-01T02:32:53.283Z,85.43
2022-12-01T02:35:33.758Z,85.39
2022-12-01T02:38:15.409Z,85.17
2022-12-01T02:40:53.503Z,85.04
2022-12-01T02:43:32.819Z,85.21
2022-12-01T02:46:11.134Z,85.06
2022-12-01T02:48:48.167Z,85.10
2022-12-01T02:51:25.815Z,85.08
2022-12-01T02:53:59.775Z,85.00
2022-12-01T02:56:31.930Z,84.82
2022-12-01T02:59:02.659Z,84.91
2022-12-01T03:01:54.623Z,84.75
2022-12-01T03:04:41.971Z,84.78
2022-12-01T03:07:24.364Z,84.66
2022-12-01T03:10:05.229Z,84.55
2022-12-01T03:12:46.137Z,84.46
2022-12-01T03:15:27.170Z,84.44
2022-12-01T03:18:06.760Z,84.78
2022-12-01T03:20:45.076Z,84.89
2022-12-01T03:23:22.260Z,84.87
2022-12-01T03:25:56.203Z,84.82
2022-12-01T03:28:34.482Z,84.88
2022-12-01T03:31:11.963Z,84.88
2022-12-01T03:33:49.324Z,85.07
2022-12-01T03:36:26.597Z,84.78
2022-12-01T03:39:04.786Z,84.65
2022-12-01T03:41:40.923Z,84.69
2022-12-01T03:44:17.426Z,84.74
2022-12-01T03:46:54.788Z,84.59
2022-12-01T03:49:27.354Z,84.55
2022-12-01T03:52:11.704Z,84.52
2022-12-01T03:54:53.283Z,84.37
2022-12-01T03:57:31.078Z,84.19
2022-12-01T04:00:03.350Z,84.10
2022-12-01T04:02:45.852Z,84.13
2022-12-01T04:05:25.008Z,83.80
2022-12-01T04:07:57.650Z,84.00
2022-12-01T04:10:28.438Z,84.32
2022-12-01T04:13:00.926Z,84.54
2022-12-01T04:15:33.101Z,84.62
2022-12-01T04:18:03.663Z,84.74
2022-12-01T04:20:35.657Z,84.86
2022-12-01T04:23:07.725Z,84.89
2022-12-01T04:25:39.826Z,84.94
2022-12-01T04:28:12.329Z,85.09
2022-12-01T04:30:44.271Z,85.08
2022-12-01T04:33:16.345Z,85.15
2022-12-01T04:35:56.839Z,85.15
2022-12-01T04:38:31.072Z,85.15
2022-12-01T04:41:03.329Z,85.03
2022-12-01T04:43:33.997Z,85.06
2022-12-01T04:46:07.218Z,85.16
2022-12-01T04:48:39.838Z,85.38
2022-12-01T04:51:11.954Z,85.74
2022-12-01T04:53:44.294Z,85.76
2022-12-01T04:56:16.305Z,85.74
2022-12-01T04:58:48.369Z,85.76
2022-12-01T05:01:21.005Z,85.75
2022-12-01T05:03:53.085Z,86.01
2022-12-01T05:06:27.865Z,86.04
2022-12-01T05:09:01.811Z,86.22
2022-12-01T05:11:34.601Z,86.38
2022-12-01T05:14:07.492Z,86.42
2022-12-01T05:16:39.812Z,86.66
2022-12-01T05:19:29.694Z,86.67
2022-12-01T05:23:04.788Z,86.64
2022-12-01T05:25:37.948Z,86.56
2022-12-01T05:28:33.181Z,86.75
2022-12-01T05:31:05.482Z,86.91
2022-12-01T05:33:37.689Z,86.97
2022-12-01T05:36:08.843Z,86.94
2022-12-01T05:38:41.631Z,86.95
2022-12-01T05:41:13.740Z,87.07
2022-12-01T05:43:45.898Z,87.13
2022-12-01T05:46:16.407Z,87.07
2022-12-01T05:48:48.761Z,87.00
2022-12-01T05:51:21.063Z,87.04
2022-12-01T05:53:53.156Z,86.97
2022-12-01T05:56:25.180Z,87.20
2022-12-01T05:58:57.613Z,87.39
2022-12-01T06:01:30.037Z,87.57
2022-12-01T06:04:02.200Z,87.21
2022-12-01T06:06:34.410Z,86.96
2022-12-01T06:09:09.181Z,86.82
2022-12-01T06:11:41.223Z,86.65
2022-12-01T06:14:13.235Z,86.50
2022-12-01T06:16:45.327Z,86.25
2022-12-01T06:19:15.858Z,86.56
2022-12-01T06:21:47.872Z,86.45
2022-12-01T06:24:19.870Z,86.35
2022-12-01T06:26:50.346Z,86.41
2022-12-01T06:29:22.574Z,86.58
2022-12-01T06:31:54.845Z,86.84
2022-12-01T06:34:27.063Z,86.92
2022-12-01T06:36:59.091Z,86.82
2022-12-01T06:39:31.329Z,86.95
2022-12-01T06:42:03.417Z,87.10
2022-12-01T06:44:35.724Z,86.94
2022-12-01T06:47:08.851Z,87.14
2022-12-01T06:49:40.879Z,87.21
2022-12-01T06:52:12.908Z,86.93
2022-12-01T06:54:44.931Z,86.91
2022-12-01T06:57:17.383Z,87.01
2022-12-01T06:59:50.178Z,87.15
2022-12-01T07:02:22.861Z,86.88
2022-12-01T07:04:53.506Z,86.67
2022-12-01T07:07:25.613Z,86.69
2022-12-01T07:09:57.848Z,86.59
2022-12-01T07:12:31.090Z,86.36
2022-12-01T07:15:03.272Z,86.31
2022-12-01T07:17:33.833Z,86.44
2022-12-01T07:20:07.441Z,86.39
2022-12-01T07:22:39.993Z,86.31
2022-12-01T07:25:12.476Z,86.44
2022-12-01T07:27:44.506Z,86.30
2022-12-01T07:30:17.146Z,86.23
2022-12-01T07:32:49.373Z,86.39
2022-12-01T07:35:23.069Z,86.36
2022-12-01T07:37:58.208Z,86.33
2022-12-01T07:40:30.382Z,86.20
2022-12-01T07:43:02.392Z,86.21
2022-12-01T07:45:35.620Z,85.94
2022-12-01T07:48:08.250Z,85.85
2022-12-01T07:50:40.595Z,86.06
2022-12-01T07:53:11.017Z,85.67
2022-12-01T07:55:48.665Z,85.68
2022-12-01T07:58:20.672Z,85.47
2022-12-01T08:00:52.690Z,85.57
2022-12-01T08:03:23.579Z,85.68
2022-12-01T08:06:03.124Z,85.74
2022-12-01T08:08:37.177Z,85.79
2022-12-01T08:11:11.917Z,85.74
2022-12-01T08:13:44.655Z,85.80
2022-12-01T08:16:18.246Z,85.91
2022-12-01T08:18:51.225Z,85.89
2022-12-01T08:21:24.674Z,85.74
2022-12-01T08:23:58.494Z,85.72
2022-12-01T08:26:30.766Z,85.80
2022-12-01T08:29:03.211Z,85.67
2022-12-01T08:31:38.139Z,85.78
2022-12-01T08:34:10.553Z,85.76
2022-12-01T08:36:42.800Z,85.87
2022-12-01T08:39:13.357Z,85.45
2022-12-01T08:41:45.440Z,85.47
2022-12-01T08:44:16.061Z,85.58
2022-12-01T08:46:48.237Z,85.54
2022-12-01T08:49:22.535Z,85.60
2022-12-01T08:51:56.348Z,85.66
2022-12-01T08:54:28.779Z,85.50
2022-12-01T08:57:00.958Z,85.34
2022-12-01T08:59:31.389Z,85.36
2022-12-01T09:02:06.941Z,85.20
2022-12-01T09:04:39.549Z,85.11
2022-12-01T09:07:15.101Z,85.03
2022-12-01T09:09:48.087Z,85.04
2022-12-01T09:12:20.575Z,85.02
2022-12-01T09:14:53.242Z,84.98
2022-12-01T09:17:27.868Z,84.98
2022-12-01T09:19:59.989Z,85.11
2022-12-01T09:22:30.487Z,85.07
2022-12-01T09:25:02.515Z,85.01
2022-12-01T09:27:33.294Z,85.05
2022-12-01T09:30:05.900Z,85.17
2022-12-01T09:32:38.145Z,84.97
2022-12-01T09:35:10.762Z,84.90
2022-12-01T09:37:43.032Z,84.89
2022-12-01T09:40:18.433Z,84.95
2022-12-01T09:42:51.779Z,84.87
2022-12-01T09:45:31.426Z,84.85
2022-12-01T09:48:07.558Z,84.82
2022-12-01T09:50:40.029Z,84.69
2022-12-01T09:53:19.855Z,84.65
2022-12-01T09:55:52.768Z,84.61
2022-12-01T09:58:29.744Z,84.73
2022-12-01T10:01:02.405Z,84.56
2022-12-01T10:03:40.644Z,84.45
2022-12-01T10:06:28.689Z,84.29
2022-12-01T10:09:12.189Z,84.27
2022-12-01T10:11:46.758Z,84.18
2022-12-01T10:14:22.175Z,83.98
2022-12-01T10:17:03.627Z,83.86
2022-12-01T10:19:43.578Z,83.68
2022-12-01T10:22:36.160Z,83.50
2022-12-01T10:25:11.635Z,83.58
2022-12-01T10:27:52.733Z,83.63
2022-12-01T10:30:25.871Z,83.83
2022-12-01T10:33:04.659Z,83.29
2022-12-01T10:35:39.788Z,83.04
2022-12-01T10:38:22.350Z,83.28
2022-12-01T10:40:53.784Z,83.30
2022-12-01T10:43:33.942Z,83.20
2022-12-01T10:46:15.278Z,83.36
2022-12-01T10:48:57.112Z,83.28
2022-12-01T10:51:30.395Z,82.95
2022-12-01T10:54:11.595Z,83.09
2022-12-01T10:56:47.747Z,83.27
2022-12-01T10:59:31.218Z,83.32
2022-12-01T11:02:06.351Z,82.95
2022-12-01T11:04:45.633Z,82.68
2022-12-01T11:07:25.143Z,82.60
2022-12-01T11:10:15.068Z,82.71
2022-12-01T11:12:54.240Z,82.48
2022-12-01T11:15:29.008Z,82.54
2022-12-01T11:18:03.332Z,82.44
2022-12-01T11:20:37.800Z,82.30
2022-12-01T11:23:29.917Z,82.48
2022-12-01T11:26:16.786Z,82.50
2022-12-01T11:28:57.502Z,82.13
2022-12-01T11:31:43.173Z,81.98
2022-12-01T11:34:23.878Z,82.26
2022-12-01T11:36:58.077Z,81.96
2022-12-01T11:39:33.567Z,81.87
2022-12-01T11:42:08.782Z,81.87
2022-12-01T11:44:57.336Z,81.74
2022-12-01T11:47:30.814Z,81.47
2022-12-01T11:50:05.503Z,81.71
2022-12-01T11:52:47.140Z,81.88
2022-12-01T11:55:25.665Z,81.76
2022-12-01T11:58:01.971Z,81.56
2022-12-01T12:00:48.490Z,81.57
2022-12-01T12:03:29.421Z,81.72
2022-12-01T12:09:24.808Z,81.76
2022-12-01T12:12:05.458Z,81.73
2022-12-01T12:14:48.692Z,81.87
2022-12-01T12:17:38.734Z,82.02
2022-12-01T12:20:38.868Z,81.65
2022-12-01T12:23:36.798Z,81.16
2022-12-01T12:26:18.956Z,80.84
2022-12-01T12:29:18.689Z,81.14
2022-12-01T12:32:08.019Z,81.39
2022-12-01T12:34:50.152Z,81.60
2022-12-01T12:37:29.093Z,81.56
2022-12-01T12:40:18.809Z,81.25
2022-12-01T12:43:04.838Z,81.31
2022-12-01T12:45:46.921Z,81.37
2022-12-01T12:48:50.834Z,81.16
2022-12-01T12:51:36.365Z,80.96
2022-12-01T12:54:20.098Z,80.91
2022-12-01T12:57:01.692Z,80.91
2022-12-01T12:59:40.634Z,80.87
2022-12-01T13:02:19.461Z,80.98
2022-12-01T13:04:58.783Z,80.83
2022-12-01T13:07:39.190Z,80.86
2022-12-01T13:10:23.285Z,80.40
2022-12-01T13:13:01.418Z,79.93
2022-12-01T13:15:37.484Z,79.77
2022-12-01T13:18:20.071Z,79.89
2022-12-01T13:20:53.375Z,79.95
2022-12-01T13:23:26.337Z,79.71
2022-12-01T13:26:02.126Z,79.61
2022-12-01T13:28:44.370Z,79.35
2022-12-01T13:31:16.123Z,79.45
2022-12-01T13:33:59.144Z,79.64
2022-12-01T13:36:48.159Z,79.79
2022-12-01T13:39:23.149Z,79.97
2022-12-01T13:42:05.073Z,80.14
2022-12-01T13:44:42.671Z,80.18
2022-12-01T13:47:40.258Z,80.33
2022-12-01T13:50:54.377Z,80.17
2022-12-01T13:53:32.264Z,80.11
2022-12-01T13:56:39.524Z,80.27
2022-12-01T13:59:42.853Z,80.49
2022-12-01T14:02:22.069Z,80.46
2022-12-01T14:04:54.431Z,80.51
2022-12-01T14:07:41.259Z,80.56
2022-12-01T14:10:28.599Z,80.44
2022-12-01T14:13:05.003Z,80.49
2022-12-01T14:15:42.674Z,80.47
2022-12-01T14:18:34.266Z,80.60
2022-12-01T14:21:08.864Z,80.50
2022-12-01T14:24:01.742Z,80.25
2022-12-01T14:26:44.967Z,80.05
2022-12-01T14:29:33.343Z,79.95
2022-12-01T14:32:23.208Z,79.87
2022-12-01T14:35:13.336Z,80.11
2022-12-01T14:37:50.876Z,80.23
2022-12-01T14:40:31.400Z,80.21
2022-12-01T14:43:22.515Z,80.24
2022-12-01T14:46:07.226Z,80.37
2022-12-01T14:48:43.311Z,80.43
2022-12-01T14:51:24.861Z,80.21
2022-12-01T14:53:58.492Z,79.84
2022-12-01T14:56:33.584Z,79.76
2022-12-01T14:59:20.956Z,79.79
2022-12-01T15:02:04.269Z,79.87
2022-12-01T15:04:37.827Z,80.08
2022-12-01T15:07:10.227Z,80.17
2022-12-01T15:10:02.125Z,80.20
2022-12-01T15:12:35.163Z,80.29
2022-12-01T15:15:23.943Z,80.32
2022-12-01T15:18:02.340Z,80.33
2022-12-01T15:20:47.584Z,80.22
2022-12-01T15:23:24.420Z,80.19
2022-12-01T15:26:13.757Z,80.25
2022-12-01T15:29:06.299Z,80.45
2022-12-01T15:31:49.419Z,80.52
2022-12-01T15:34:54.579Z,80.43
2022-12-01T15:37:29.978Z,80.38
2022-12-01T15:43:08.116Z,80.26
2022-12-01T15:45:50.448Z,80.22
2022-12-01T15:48:30.014Z,80.38
2022-12-01T15:51:09.907Z,80.34
2022-12-01T15:53:49.237Z,80.57
2022-12-01T15:56:29.151Z,80.55
2022-12-01T15:59:08.472Z,80.63
2022-12-01T16:01:42.157Z,80.72
2022-12-01T16:04:21.297Z,80.85
2022-12-01T16:07:01.662Z,80.85
2022-12-01T16:09:59.127Z,80.96
2022-12-01T16:12:33.341Z,80.82
2022-12-01T16:15:22.377Z,80.68
2022-12-01T16:17:55.908Z,80.32
2022-12-01T16:20:33.452Z,80.60
2022-12-01T16:23:12.624Z,80.62
2022-12-01T16:25:47.872Z,80.66
2022-12-01T16:28:25.332Z,80.72
2022-12-01T16:30:57.511Z,80.44
2022-12-01T16:33:30.655Z,80.33
2022-12-01T16:36:05.654Z,80.02
2022-12-01T16:38:37.706Z,80.24
2022-12-01T16:41:19.601Z,80.27
2022-12-01T16:44:20.311Z,80.48
2022-12-01T16:46:44.515Z,80.43
2022-12-01T16:49:16.679Z,80.61
2022-12-01T16:51:56.071Z,80.59
2022-12-01T16:54:29.235Z,80.73
2022-12-01T16:56:59.730Z,80.72
2022-12-01T16:59:32.486Z,80.96
2022-12-01T17:02:04.773Z,80.97
2022-12-01T17:04:36.970Z,81.11
2022-12-01T17:07:09.479Z,81.13
2022-12-01T17:09:41.549Z,80.96
2022-12-01T17:12:11.962Z,80.50
2022-12-01T17:14:44.310Z,80.53
2022-12-01T17:17:16.494Z,80.61
2022-12-01T17:19:46.945Z,80.71
2022-12-01T17:22:18.885Z,80.53
2022-12-01T17:24:51.691Z,80.60
2022-12-01T17:27:25.258Z,80.75
2022-12-01T17:29:58.983Z,80.75
2022-12-01T17:32:31.241Z,80.75
2022-12-01T17:35:01.722Z,80.75
2022-12-01T17:37:33.789Z,80.49
2022-12-01T17:40:07.354Z,80.22
2022-12-01T17:42:39.423Z,80.14
2022-12-01T17:45:12.708Z,80.07
2022-12-01T17:47:44.792Z,79.97
2022-12-01T17:50:17.142Z,79.79
2022-12-01T17:52:49.448Z,79.72
2022-12-01T17:55:21.517Z,79.80
2022-12-01T17:57:52.090Z,79.84
2022-12-01T18:00:26.179Z,79.91
2022-12-01T18:02:58.367Z,79.91
2022-12-01T18:05:30.254Z,79.96
2022-12-01T18:08:02.737Z,80.05
2022-12-01T18:10:34.858Z,80.22
2022-12-01T18:13:07.259Z,80.32
2022-12-01T18:15:41.550Z,80.16
2022-12-01T18:18:13.819Z,80.21
2022-12-01T18:20:46.477Z,80.31
2022-12-01T18:23:18.634Z,80.19
2022-12-01T18:25:50.741Z,80.06
2022-12-01T18:28:21.330Z,80.17
2022-12-01T18:30:53.368Z,80.21
2022-12-01T18:33:24.006Z,80.16
2022-12-01T18:35:56.793Z,79.77
2022-12-01T18:38:30.837Z,79.67
2022-12-01T18:41:03.965Z,79.72
2022-12-01T18:43:37.357Z,79.68
2022-12-01T18:46:09.817Z,79.80
2022-12-01T18:48:46.912Z,79.98
2022-12-01T18:51:19.889Z,79.99
2022-12-01T18:53:57.181Z,80.03
2022-12-01T18:56:30.045Z,79.85
2022-12-01T18:59:03.596Z,79.60
2022-12-01T19:01:39.988Z,79.24
2022-12-01T19:04:12.819Z,79.14
2022-12-01T19:06:46.915Z,79.17
2022-12-01T19:09:19.180Z,79.27
2022-12-01T19:11:49.868Z,79.09
2022-12-01T19:14:23.541Z,79.13
2022-12-01T19:16:56.241Z,78.99
2022-12-01T19:19:30.921Z,79.26
2022-12-01T19:22:06.584Z,79.08
2022-12-01T19:24:38.563Z,79.18
2022-12-01T19:27:10.650Z,79.04
2022-12-01T19:29:41.664Z,79.32
2022-12-01T19:32:14.596Z,79.41
2022-12-01T19:34:47.338Z,79.31
2022-12-01T19:37:20.125Z,79.26
2022-12-01T19:39:53.084Z,79.47
2022-12-01T19:42:26.311Z,79.62
2022-12-01T19:44:58.777Z,79.70
2022-12-01T19:47:33.560Z,79.65
2022-12-01T19:50:07.915Z,79.79
2022-12-01T19:52:42.376Z,79.72
2022-12-01T19:55:15.556Z,79.88
2022-12-01T19:57:50.690Z,79.90
2022-12-01T20:00:23.681Z,79.82
2022-12-01T20:02:55.989Z,79.78
2022-12-01T20:05:28.572Z,79.78
2022-12-01T20:08:02.536Z,79.60
2022-12-01T20:10:34.654Z,79.47
2022-12-01T20:13:06.937Z,79.55
2022-12-01T20:15:39.671Z,79.48
2022-12-01T20:18:14.638Z,79.52
2022-12-01T20:20:48.303Z,79.59
2022-12-01T20:23:21.177Z,79.66
2022-12-01T20:25:53.421Z,79.41
2022-12-01T20:28:25.837Z,79.43
2022-12-01T20:30:58.340Z,79.54
2022-12-01T20:33:31.089Z,79.42
2022-12-01T20:36:03.236Z,79.38
2022-12-01T20:38:33.865Z,79.48
2022-12-01T20:41:06.937Z,79.60
2022-12-01T20:43:39.100Z,79.74
2022-12-01T20:46:10.103Z,79.66
2022-12-01T20:48:42.801Z,79.39
2022-12-01T20:51:15.940Z,79.28
2022-12-01T20:54:12.348Z,79.46
2022-12-01T20:56:41.128Z,79.49
2022-12-01T20:59:13.710Z,79.48
2022-12-01T21:01:46.497Z,79.62
2022-12-01T21:04:18.955Z,79.60
2022-12-01T21:06:51.390Z,79.48
2022-12-01T21:09:24.176Z,79.48
2022-12-01T21:12:17.509Z,79.49
2022-12-01T21:15:01.093Z,79.70
2022-12-01T21:17:38.465Z,79.77
2022-12-01T21:20:22.047Z,79.99
2022-12-01T21:22:55.326Z,80.05
2022-12-01T21:25:27.754Z,80.19
2022-12-01T21:28:04.859Z,80.18
2022-12-01T21:30:36.901Z,80.08
2022-12-01T21:33:17.398Z,80.04
2022-12-01T21:35:52.966Z,80.15
2022-12-01T21:38:26.226Z,80.21
2022-12-01T21:40:58.507Z,80.23
2022-12-01T21:43:36.766Z,80.32
2022-12-01T21:46:16.636Z,80.35
2022-12-01T21:48:48.729Z,80.27
2022-12-01T21:51:22.990Z,80.17
2022-12-01T21:53:57.231Z,80.05
2022-12-01T21:56:31.687Z,80.07
2022-12-01T21:59:12.589Z,79.99
2022-12-01T22:01:44.784Z,79.89
2022-12-01T22:04:21.126Z,79.96
2022-12-01T22:07:15.597Z,80.03
2022-12-01T22:10:25.266Z,80.12
2022-12-01T22:12:57.435Z,79.93
2022-12-01T22:15:40.985Z,79.81
2022-12-01T22:18:23.293Z,79.68
2022-12-01T22:20:55.550Z,79.79
2022-12-01T22:23:32.909Z,79.86
2022-12-01T22:26:14.662Z,79.84
2022-12-01T22:28:46.761Z,79.83
2022-12-01T22:31:20.573Z,80.05
2022-12-01T22:34:02.671Z,79.76
2022-12-01T22:36:36.344Z,79.85
2022-12-01T22:39:25.190Z,79.58
2022-12-01T22:42:01.677Z,79.40
2022-12-01T22:44:34.096Z,79.48
2022-12-01T22:47:06.556Z,79.48
2022-12-01T22:49:38.829Z,79.21
2022-12-01T22:52:20.150Z,79.13
2022-12-01T22:54:52.858Z,78.94
2022-12-01T22:57:31.221Z,78.97
2022-12-01T23:00:17.187Z,78.90
2022-12-01T23:02:51.000Z,78.89
2022-12-01T23:05:28.530Z,78.88
2022-12-01T23:08:00.683Z,79.02
2022-12-01T23:10:35.680Z,79.11
2022-12-01T23:13:16.962Z,78.94
2022-12-01T23:15:51.538Z,79.07
2022-12-01T23:18:27.020Z,79.23
2022-12-01T23:21:00.789Z,79.35
2022-12-01T23:23:34.737Z,79.38
2022-12-01T23:26:09.783Z,79.42
2022-12-01T23:28:42.168Z,79.36
2022-12-01T23:31:14.390Z,79.55
2022-12-01T23:33:44.837Z,79.37
2022-12-01T23:36:21.037Z,79.27
2022-12-01T23:38:56.979Z,79.30
2022-12-01T23:41:33.822Z,79.39
2022-12-01T23:44:13.536Z,79.49
2022-12-01T23:46:46.176Z,79.44
2022-12-01T23:49:23.642Z,79.56
2022-12-01T23:51:57.953Z,79.46
2022-12-01T23:54:32.909Z,79.60
2022-12-01T23:57:12.159Z,79.69
2022-12-01T23:59:45.264Z,79.53
